sensor_id;sensor_type;location;lat;lon;timestamp;pressure;altitude;pressure_sealevel;temperature;humidity
24825;BME280;12910;57.690;11.974;2022-11-20T00:00:28;100714.34;;;-0.05;100.00
24825;BME280;12910;57.690;11.974;2022-11-20T00:02:53;100732.47;;;0.03;100.00
24825;BME280;12910;57.690;11.974;2022-11-20T00:05:19;100716.22;;;-0.02;100.00
24825;BME280;12910;57.690;11.974;2022-11-20T00:07:46;100730.91;;;0.05;100.00
24825;BME280;12910;57.690;11.974;2022-11-20T00:10:11;100736.81;;;0.06;100.00
24825;BME280;12910;57.690;11.974;2022-11-20T00:12:37;100733.34;;;0.04;100.00
24825;BME280;12910;57.690;11.974;2022-11-20T00:15:03;100734.03;;;0.01;100.00
24825;BME280;12910;57.690;11.974;2022-11-20T00:17:28;100723.66;;;-0.04;100.00
24825;BME280;12910;57.690;11.974;2022-11-20T00:19:54;100742.81;;;0.08;100.00
24825;BME280;12910;57.690;11.974;2022-11-20T00:22:19;100741.00;;;0.05;100.00
24825;BME280;12910;57.690;11.974;2022-11-20T00:24:45;100737.72;;;0.06;100.00
24825;BME280;12910;57.690;11.974;2022-11-20T00:27:10;100724.28;;;-0.08;100.00
24825;BME280;12910;57.690;11.974;2022-11-20T00:29:35;100733.09;;;-0.01;100.00
24825;BME280;12910;57.690;11.974;2022-11-20T00:32:01;100745.84;;;0.02;100.00
24825;BME280;12910;57.690;11.974;2022-11-20T00:34:26;100732.38;;;0.02;100.00
24825;BME280;12910;57.690;11.974;2022-11-20T00:36:51;100731.22;;;-0.04;100.00
24825;BME280;12910;57.690;11.974;2022-11-20T00:39:17;100728.69;;;-0.04;100.00
24825;BME280;12910;57.690;11.974;2022-11-20T00:41:42;100721.13;;;-0.04;100.00
24825;BME280;12910;57.690;11.974;2022-11-20T00:44:07;100729.41;;;-0.06;100.00
24825;BME280;12910;57.690;11.974;2022-11-20T00:46:33;100728.69;;;-0.04;100.00
24825;BME280;12910;57.690;11.974;2022-11-20T00:48:59;100727.28;;;0.00;100.00
24825;BME280;12910;57.690;11.974;2022-11-20T00:51:26;100726.09;;;-0.05;100.00
24825;BME280;12910;57.690;11.974;2022-11-20T00:53:51;100711.00;;;-0.19;100.00
24825;BME280;12910;57.690;11.974;2022-11-20T00:56:18;100719.13;;;-0.09;100.00
24825;BME280;12910;57.690;11.974;2022-11-20T00:58:45;100726.94;;;-0.05;100.00
24825;BME280;12910;57.690;11.974;2022-11-20T01:01:16;100720.50;;;-0.14;100.00
24825;BME280;12910;57.690;11.974;2022-11-20T01:03:45;100730.00;;;-0.10;100.00
24825;BME280;12910;57.690;11.974;2022-11-20T01:06:18;100724.56;;;-0.17;100.00
24825;BME280;12910;57.690;11.974;2022-11-20T01:08:44;100737.28;;;-0.15;100.00
24825;BME280;12910;57.690;11.974;2022-11-20T01:11:18;100729.31;;;-0.21;100.00
24825;BME280;12910;57.690;11.974;2022-11-20T01:13:45;100747.53;;;-0.12;100.00
24825;BME280;12910;57.690;11.974;2022-11-20T01:16:20;100744.31;;;-0.09;100.00
24825;BME280;12910;57.690;11.974;2022-11-20T01:18:48;100750.31;;;-0.07;100.00
24825;BME280;12910;57.690;11.974;2022-11-20T01:21:20;100752.75;;;-0.09;100.00
24825;BME280;12910;57.690;11.974;2022-11-20T01:23:47;100746.75;;;-0.11;100.00
24825;BME280;12910;57.690;11.974;2022-11-20T01:26:19;100745.97;;;-0.10;100.00
24825;BME280;12910;57.690;11.974;2022-11-20T01:28:45;100742.47;;;-0.12;100.00
24825;BME280;12910;57.690;11.974;2022-11-20T01:33:39;100744.34;;;-0.23;100.00
24825;BME280;12910;57.690;11.974;2022-11-20T01:36:06;100748.13;;;-0.16;100.00
24825;BME280;12910;57.690;11.974;2022-11-20T01:38:32;100742.88;;;-0.19;100.00
24825;BME280;12910;57.690;11.974;2022-11-20T01:40:57;100742.88;;;-0.19;100.00
24825;BME280;12910;57.690;11.974;2022-11-20T01:43:23;100722.25;;;-0.27;100.00
24825;BME280;12910;57.690;11.974;2022-11-20T01:46:15;100748.50;;;-0.10;100.00
24825;BME280;12910;57.690;11.974;2022-11-20T01:48:49;100741.78;;;-0.09;100.00
24825;BME280;12910;57.690;11.974;2022-11-20T01:52:07;100741.44;;;-0.16;100.00
24825;BME280;12910;57.690;11.974;2022-11-20T01:54:21;100727.69;;;-0.21;100.00
24825;BME280;12910;57.690;11.974;2022-11-20T01:56:51;100730.09;;;-0.22;100.00
24825;BME280;12910;57.690;11.974;2022-11-20T01:59:19;100728.34;;;-0.23;100.00
24825;BME280;12910;57.690;11.974;2022-11-20T02:01:45;100708.25;;;-0.37;100.00
24825;BME280;12910;57.690;11.974;2022-11-20T02:04:12;100723.50;;;-0.20;100.00
24825;BME280;12910;57.690;11.974;2022-11-20T02:07:01;100720.13;;;-0.21;100.00
24825;BME280;12910;57.690;11.974;2022-11-20T02:09:28;100718.47;;;-0.20;100.00
24825;BME280;12910;57.690;11.974;2022-11-20T02:11:53;100720.78;;;-0.23;100.00
24825;BME280;12910;57.690;11.974;2022-11-20T02:14:19;100716.66;;;-0.23;100.00
24825;BME280;12910;57.690;11.974;2022-11-20T02:16:47;100712.47;;;-0.22;100.00
24825;BME280;12910;57.690;11.974;2022-11-20T02:19:39;100693.41;;;-0.32;100.00
24825;BME280;12910;57.690;11.974;2022-11-20T02:22:15;100696.22;;;-0.27;100.00
24825;BME280;12910;57.690;11.974;2022-11-20T02:24:43;100698.69;;;-0.14;100.00
24825;BME280;12910;57.690;11.974;2022-11-20T02:27:15;100695.81;;;-0.20;100.00
24825;BME280;12910;57.690;11.974;2022-11-20T02:29:57;100695.41;;;-0.13;100.00
24825;BME280;12910;57.690;11.974;2022-11-20T02:32:31;100696.97;;;-0.15;100.00
24825;BME280;12910;57.690;11.974;2022-11-20T02:34:57;100687.06;;;-0.12;100.00
24825;BME280;12910;57.690;11.974;2022-11-20T02:37:29;100683.22;;;-0.20;100.00
24825;BME280;12910;57.690;11.974;2022-11-20T02:39:55;100688.63;;;-0.14;100.00
24825;BME280;12910;57.690;11.974;2022-11-20T02:42:21;100686.97;;;-0.13;100.00
24825;BME280;12910;57.690;11.974;2022-11-20T02:44:46;100699.06;;;-0.08;100.00
24825;BME280;12910;57.690;11.974;2022-11-20T02:47:12;100688.81;;;-0.11;100.00
24825;BME280;12910;57.690;11.974;2022-11-20T02:49:37;100690.19;;;-0.16;100.00
24825;BME280;12910;57.690;11.974;2022-11-20T02:52:02;100687.56;;;-0.18;100.00
24825;BME280;12910;57.690;11.974;2022-11-20T02:54:28;100694.25;;;-0.18;100.00
24825;BME280;12910;57.690;11.974;2022-11-20T02:56:53;100697.13;;;-0.12;100.00
24825;BME280;12910;57.690;11.974;2022-11-20T02:59:19;100696.28;;;-0.12;100.00
24825;BME280;12910;57.690;11.974;2022-11-20T03:01:44;100673.91;;;-0.21;100.00
24825;BME280;12910;57.690;11.974;2022-11-20T03:04:10;100691.75;;;-0.18;100.00
24825;BME280;12910;57.690;11.974;2022-11-20T03:06:35;100669.28;;;-0.28;100.00
24825;BME280;12910;57.690;11.974;2022-11-20T03:09:01;100686.00;;;-0.16;100.00
24825;BME280;12910;57.690;11.974;2022-11-20T03:11:26;100688.25;;;-0.20;100.00
24825;BME280;12910;57.690;11.974;2022-11-20T03:13:52;100691.03;;;-0.16;100.00
24825;BME280;12910;57.690;11.974;2022-11-20T03:16:19;100689.50;;;-0.13;100.00
24825;BME280;12910;57.690;11.974;2022-11-20T03:18:46;100675.66;;;-0.20;100.00
24825;BME280;12910;57.690;11.974;2022-11-20T03:21:12;100669.50;;;-0.25;100.00
24825;BME280;12910;57.690;11.974;2022-11-20T03:23:39;100679.06;;;-0.20;100.00
24825;BME280;12910;57.690;11.974;2022-11-20T03:26:25;100664.38;;;-0.40;100.00
24825;BME280;12910;57.690;11.974;2022-11-20T03:28:55;100661.19;;;-0.51;100.00
24825;BME280;12910;57.690;11.974;2022-11-20T03:31:23;100690.00;;;-0.33;100.00
24825;BME280;12910;57.690;11.974;2022-11-20T03:33:49;100681.91;;;-0.42;100.00
24825;BME280;12910;57.690;11.974;2022-11-20T03:36:16;100693.31;;;-0.34;100.00
24825;BME280;12910;57.690;11.974;2022-11-20T03:38:42;100693.31;;;-0.34;100.00
24825;BME280;12910;57.690;11.974;2022-11-20T03:41:17;100690.63;;;-0.37;100.00
24825;BME280;12910;57.690;11.974;2022-11-20T03:43:50;100662.16;;;-0.49;100.00
24825;BME280;12910;57.690;11.974;2022-11-20T03:46:16;100694.28;;;-0.32;100.00
24825;BME280;12910;57.690;11.974;2022-11-20T03:48:41;100666.41;;;-0.48;100.00
24825;BME280;12910;57.690;11.974;2022-11-20T03:51:34;100677.25;;;-0.36;100.00
24825;BME280;12910;57.690;11.974;2022-11-20T03:54:10;100681.59;;;-0.33;100.00
24825;BME280;12910;57.690;11.974;2022-11-20T03:56:38;100669.59;;;-0.37;100.00
24825;BME280;12910;57.690;11.974;2022-11-20T03:59:04;100668.25;;;-0.32;100.00
24825;BME280;12910;57.690;11.974;2022-11-20T04:01:35;100653.25;;;-0.44;100.00
24825;BME280;12910;57.690;11.974;2022-11-20T04:04:02;100663.19;;;-0.32;100.00
24825;BME280;12910;57.690;11.974;2022-11-20T04:06:30;100666.41;;;-0.35;100.00
24825;BME280;12910;57.690;11.974;2022-11-20T04:08:57;100664.84;;;-0.33;100.00
24825;BME280;12910;57.690;11.974;2022-11-20T04:11:31;100664.75;;;-0.34;100.00
24825;BME280;12910;57.690;11.974;2022-11-20T04:14:02;100653.63;;;-0.38;100.00
24825;BME280;12910;57.690;11.974;2022-11-20T04:16:33;100652.44;;;-0.29;100.00
24825;BME280;12910;57.690;11.974;2022-11-20T04:19:00;100651.31;;;-0.35;100.00
24825;BME280;12910;57.690;11.974;2022-11-20T04:21:26;100643.19;;;-0.44;100.00
24825;BME280;12910;57.690;11.974;2022-11-20T04:23:52;100643.75;;;-0.35;100.00
24825;BME280;12910;57.690;11.974;2022-11-20T04:26:22;100643.91;;;-0.32;100.00
24825;BME280;12910;57.690;11.974;2022-11-20T04:28:49;100637.81;;;-0.35;100.00
24825;BME280;12910;57.690;11.974;2022-11-20T04:31:17;100639.28;;;-0.39;100.00
24825;BME280;12910;57.690;11.974;2022-11-20T04:33:43;100631.72;;;-0.39;100.00
24825;BME280;12910;57.690;11.974;2022-11-20T04:36:14;100626.63;;;-0.40;100.00
24825;BME280;12910;57.690;11.974;2022-11-20T04:38:40;100630.75;;;-0.41;100.00
24825;BME280;12910;57.690;11.974;2022-11-20T04:41:12;100628.84;;;-0.45;100.00
24825;BME280;12910;57.690;11.974;2022-11-20T04:43:39;100630.97;;;-0.38;100.00
24825;BME280;12910;57.690;11.974;2022-11-20T04:46:04;100621.66;;;-0.39;100.00
24825;BME280;12910;57.690;11.974;2022-11-20T04:48:30;100599.41;;;-0.46;100.00
24825;BME280;12910;57.690;11.974;2022-11-20T04:50:55;100619.13;;;-0.39;100.00
24825;BME280;12910;57.690;11.974;2022-11-20T04:53:22;100613.34;;;-0.38;100.00
24825;BME280;12910;57.690;11.974;2022-11-20T04:55:47;100612.28;;;-0.41;100.00
24825;BME280;12910;57.690;11.974;2022-11-20T04:58:13;100616.53;;;-0.40;100.00
24825;BME280;12910;57.690;11.974;2022-11-20T05:00:39;100613.75;;;-0.45;100.00
24825;BME280;12910;57.690;11.974;2022-11-20T05:03:04;100622.50;;;-0.38;100.00
24825;BME280;12910;57.690;11.974;2022-11-20T05:05:30;100612.38;;;-0.40;100.00
24825;BME280;12910;57.690;11.974;2022-11-20T05:07:57;100610.81;;;-0.38;100.00
24825;BME280;12910;57.690;11.974;2022-11-20T05:10:23;100602.00;;;-0.44;100.00
24825;BME280;12910;57.690;11.974;2022-11-20T05:12:49;100602.09;;;-0.43;100.00
24825;BME280;12910;57.690;11.974;2022-11-20T05:15:14;100598.44;;;-0.48;100.00
24825;BME280;12910;57.690;11.974;2022-11-20T05:17:39;100574.97;;;-0.62;100.00
24825;BME280;12910;57.690;11.974;2022-11-20T05:20:05;100585.84;;;-0.48;100.00
24825;BME280;12910;57.690;11.974;2022-11-20T05:22:31;100587.00;;;-0.43;100.00
24825;BME280;12910;57.690;11.974;2022-11-20T05:24:56;100589.91;;;-0.37;100.00
24825;BME280;12910;57.690;11.974;2022-11-20T05:27:22;100574.41;;;-0.43;100.00
24825;BME280;12910;57.690;11.974;2022-11-20T05:29:47;100570.94;;;-0.45;100.00
24825;BME280;12910;57.690;11.974;2022-11-20T05:32:12;100572.00;;;-0.41;100.00
24825;BME280;12910;57.690;11.974;2022-11-20T05:34:38;100580.78;;;-0.35;100.00
24825;BME280;12910;57.690;11.974;2022-11-20T05:37:03;100572.44;;;-0.34;100.00
24825;BME280;12910;57.690;11.974;2022-11-20T05:39:29;100557.38;;;-0.47;100.00
24825;BME280;12910;57.690;11.974;2022-11-20T05:41:54;100554.25;;;-0.43;100.00
24825;BME280;12910;57.690;11.974;2022-11-20T05:44:38;100563.16;;;-0.35;100.00
24825;BME280;12910;57.690;11.974;2022-11-20T05:47:04;100557.94;;;-0.38;100.00
24825;BME280;12910;57.690;11.974;2022-11-20T05:49:30;100561.41;;;-0.36;100.00
24825;BME280;12910;57.690;11.974;2022-11-20T05:51:55;100549.75;;;-0.34;100.00
24825;BME280;12910;57.690;11.974;2022-11-20T05:54:20;100556.94;;;-0.26;100.00
24825;BME280;12910;57.690;11.974;2022-11-20T05:56:46;100534.66;;;-0.34;100.00
24825;BME280;12910;57.690;11.974;2022-11-20T05:59:11;100549.88;;;-0.32;100.00
24825;BME280;12910;57.690;11.974;2022-11-20T06:01:37;100556.22;;;-0.24;100.00
24825;BME280;12910;57.690;11.974;2022-11-20T06:04:02;100553.63;;;-0.25;100.00
24825;BME280;12910;57.690;11.974;2022-11-20T06:06:28;100544.13;;;-0.29;100.00
24825;BME280;12910;57.690;11.974;2022-11-20T06:08:54;100527.38;;;-0.44;100.00
24825;BME280;12910;57.690;11.974;2022-11-20T06:11:21;100547.34;;;-0.32;100.00
24825;BME280;12910;57.690;11.974;2022-11-20T06:13:47;100534.00;;;-0.31;100.00
24825;BME280;12910;57.690;11.974;2022-11-20T06:16:14;100545.09;;;-0.27;100.00
24825;BME280;12910;57.690;11.974;2022-11-20T06:18:40;100528.84;;;-0.33;100.00
24825;BME280;12910;57.690;11.974;2022-11-20T06:21:09;100532.44;;;-0.29;100.00
24825;BME280;12910;57.690;11.974;2022-11-20T06:23:35;100529.09;;;-0.28;100.00
24825;BME280;12910;57.690;11.974;2022-11-20T06:26:08;100513.56;;;-0.36;100.00
24825;BME280;12910;57.690;11.974;2022-11-20T06:28:34;100532.50;;;-0.27;100.00
24825;BME280;12910;57.690;11.974;2022-11-20T06:31:00;100528.25;;;-0.28;100.00
24825;BME280;12910;57.690;11.974;2022-11-20T06:33:26;100518.25;;;-0.27;100.00
24825;BME280;12910;57.690;11.974;2022-11-20T06:35:51;100514.88;;;-0.27;100.00
24825;BME280;12910;57.690;11.974;2022-11-20T06:38:17;100513.34;;;-0.25;100.00
24825;BME280;12910;57.690;11.974;2022-11-20T06:40:42;100515.94;;;-0.24;100.00
24825;BME280;12910;57.690;11.974;2022-11-20T06:43:09;100517.84;;;-0.20;100.00
24825;BME280;12910;57.690;11.974;2022-11-20T06:45:36;100517.94;;;-0.18;100.00
24825;BME280;12910;57.690;11.974;2022-11-20T06:48:01;100510.31;;;-0.20;100.00
24825;BME280;12910;57.690;11.974;2022-11-20T06:50:27;100516.19;;;-0.19;100.00
24825;BME280;12910;57.690;11.974;2022-11-20T06:52:52;100507.69;;;-0.21;100.00
24825;BME280;12910;57.690;11.974;2022-11-20T06:55:18;100516.97;;;-0.20;100.00
24825;BME280;12910;57.690;11.974;2022-11-20T06:57:43;100510.69;;;-0.27;100.00
24825;BME280;12910;57.690;11.974;2022-11-20T07:00:09;100516.78;;;-0.23;100.00
24825;BME280;12910;57.690;11.974;2022-11-20T07:02:34;100518.78;;;-0.18;100.00
24825;BME280;12910;57.690;11.974;2022-11-20T07:05:00;100518.00;;;-0.17;100.00
24825;BME280;12910;57.690;11.974;2022-11-20T07:07:25;100506.13;;;-0.19;100.00
24825;BME280;12910;57.690;11.974;2022-11-20T07:09:51;100495.78;;;-0.24;100.00
24825;BME280;12910;57.690;11.974;2022-11-20T07:12:16;100508.06;;;-0.15;100.00
24825;BME280;12910;57.690;11.974;2022-11-20T07:14:41;100505.53;;;-0.15;100.00
24825;BME280;12910;57.690;11.974;2022-11-20T07:17:07;100501.16;;;-0.18;100.00
24825;BME280;12910;57.690;11.974;2022-11-20T07:19:32;100491.00;;;-0.19;100.00
24825;BME280;12910;57.690;11.974;2022-11-20T07:21:57;100503.78;;;-0.16;100.00
24825;BME280;12910;57.690;11.974;2022-11-20T07:24:23;100502.13;;;-0.16;100.00
24825;BME280;12910;57.690;11.974;2022-11-20T07:26:48;100492.81;;;-0.17;100.00
24825;BME280;12910;57.690;11.974;2022-11-20T07:29:15;100494.06;;;-0.10;100.00
24825;BME280;12910;57.690;11.974;2022-11-20T07:31:41;100485.38;;;-0.15;100.00
24825;BME280;12910;57.690;11.974;2022-11-20T07:34:06;100489.88;;;-0.09;100.00
24825;BME280;12910;57.690;11.974;2022-11-20T07:36:32;100478.75;;;-0.13;100.00
24825;BME280;12910;57.690;11.974;2022-11-20T07:38:57;100502.66;;;-0.06;100.00
24825;BME280;12910;57.690;11.974;2022-11-20T07:41:23;100485.63;;;-0.10;100.00
24825;BME280;12910;57.690;11.974;2022-11-20T07:43:48;100463.13;;;-0.22;100.00
24825;BME280;12910;57.690;11.974;2022-11-20T07:46:13;100459.31;;;-0.16;100.00
24825;BME280;12910;57.690;11.974;2022-11-20T07:48:39;100482.56;;;-0.05;100.00
24825;BME280;12910;57.690;11.974;2022-11-20T07:51:05;100478.34;;;-0.06;100.00
24825;BME280;12910;57.690;11.974;2022-11-20T07:53:30;100456.72;;;-0.17;100.00
24825;BME280;12910;57.690;11.974;2022-11-20T07:55:59;100465.56;;;-0.09;100.00
24825;BME280;12910;57.690;11.974;2022-11-20T07:58:25;100466.59;;;-0.05;100.00
24825;BME280;12910;57.690;11.974;2022-11-20T08:00:50;100461.13;;;0.02;100.00
24825;BME280;12910;57.690;11.974;2022-11-20T08:03:15;100461.13;;;0.02;100.00
24825;BME280;12910;57.690;11.974;2022-11-20T08:05:41;100455.22;;;0.02;100.00
24825;BME280;12910;57.690;11.974;2022-11-20T08:08:06;100453.56;;;0.02;100.00
24825;BME280;12910;57.690;11.974;2022-11-20T08:10:33;100465.75;;;0.09;100.00
24825;BME280;12910;57.690;11.974;2022-11-20T08:12:58;100458.06;;;0.08;100.00
24825;BME280;12910;57.690;11.974;2022-11-20T08:15:50;100469.19;;;0.11;100.00
24825;BME280;12910;57.690;11.974;2022-11-20T08:18:18;100448.00;;;0.08;100.00
24825;BME280;12910;57.690;11.974;2022-11-20T08:20:44;100458.44;;;0.14;100.00
24825;BME280;12910;57.690;11.974;2022-11-20T08:23:10;100455.56;;;0.08;100.00
24825;BME280;12910;57.690;11.974;2022-11-20T08:25:37;100462.78;;;0.17;100.00
24825;BME280;12910;57.690;11.974;2022-11-20T08:28:08;100446.88;;;0.18;100.00
24825;BME280;12910;57.690;11.974;2022-11-20T08:30:34;100432.28;;;0.12;100.00
24825;BME280;12910;57.690;11.974;2022-11-20T08:33:02;100451.53;;;0.26;100.00
24825;BME280;12910;57.690;11.974;2022-11-20T08:35:28;100452.16;;;0.22;100.00
24825;BME280;12910;57.690;11.974;2022-11-20T08:37:57;100438.69;;;0.22;100.00
24825;BME280;12910;57.690;11.974;2022-11-20T08:40:22;100425.56;;;0.12;100.00
24825;BME280;12910;57.690;11.974;2022-11-20T08:42:51;100439.63;;;0.24;100.00
24825;BME280;12910;57.690;11.974;2022-11-20T08:45:18;100437.97;;;0.24;100.00
24825;BME280;12910;57.690;11.974;2022-11-20T08:47:44;100448.22;;;0.27;100.00
24825;BME280;12910;57.690;11.974;2022-11-20T08:50:12;100432.84;;;0.23;100.00
24825;BME280;12910;57.690;11.974;2022-11-20T08:52:38;100435.81;;;0.30;100.00
24825;BME280;12910;57.690;11.974;2022-11-20T08:55:05;100444.47;;;0.36;100.00
24825;BME280;12910;57.690;11.974;2022-11-20T08:57:32;100437.88;;;0.38;100.00
24825;BME280;12910;57.690;11.974;2022-11-20T08:59:58;100433.59;;;0.37;100.00
24825;BME280;12910;57.690;11.974;2022-11-20T09:02:24;100440.63;;;0.42;100.00
24825;BME280;12910;57.690;11.974;2022-11-20T09:04:49;100416.34;;;0.28;100.00
24825;BME280;12910;57.690;11.974;2022-11-20T09:07:14;100432.22;;;0.42;100.00
24825;BME280;12910;57.690;11.974;2022-11-20T09:09:40;100425.75;;;0.47;100.00
24825;BME280;12910;57.690;11.974;2022-11-20T09:12:05;100440.28;;;0.51;100.00
24825;BME280;12910;57.690;11.974;2022-11-20T09:14:30;100434.09;;;0.46;100.00
24825;BME280;12910;57.690;11.974;2022-11-20T09:16:56;100380.56;;;0.19;100.00
24825;BME280;12910;57.690;11.974;2022-11-20T09:19:23;100422.88;;;0.56;100.00
24825;BME280;12910;57.690;11.974;2022-11-20T09:21:49;100404.63;;;0.45;100.00
24825;BME280;12910;57.690;11.974;2022-11-20T09:24:14;100424.22;;;0.66;100.00
24825;BME280;12910;57.690;11.974;2022-11-20T09:26:39;100432.75;;;0.68;100.00
24825;BME280;12910;57.690;11.974;2022-11-20T09:29:05;100425.16;;;0.68;100.00
24825;BME280;12910;57.690;11.974;2022-11-20T09:31:31;100429.44;;;0.69;100.00
24825;BME280;12910;57.690;11.974;2022-11-20T09:33:57;100402.41;;;0.66;100.00
24825;BME280;12910;57.690;11.974;2022-11-20T09:36:22;100399.34;;;0.72;100.00
24825;BME280;12910;57.690;11.974;2022-11-20T09:38:48;100382.44;;;0.54;100.00
24825;BME280;12910;57.690;11.974;2022-11-20T09:41:27;100406.97;;;0.73;100.00
24825;BME280;12910;57.690;11.974;2022-11-20T09:44:02;100405.53;;;0.78;100.00
24825;BME280;12910;57.690;11.974;2022-11-20T09:52:09;100388.44;;;0.73;100.00
24825;BME280;12910;57.690;11.974;2022-11-20T09:54:40;100374.13;;;0.72;100.00
24825;BME280;12910;57.690;11.974;2022-11-20T09:57:11;100383.38;;;0.73;100.00
24825;BME280;12910;57.690;11.974;2022-11-20T09:59:41;100376.69;;;0.73;100.00
24825;BME280;12910;57.690;11.974;2022-11-20T10:05:04;100376.16;;;0.79;100.00
24825;BME280;12910;57.690;11.974;2022-11-20T10:10:03;100374.66;;;0.83;100.00
24825;BME280;12910;57.690;11.974;2022-11-20T10:12:52;100370.41;;;0.82;100.00
24825;BME280;12910;57.690;11.974;2022-11-20T10:26:04;100365.13;;;0.77;100.00
24825;BME280;12910;57.690;11.974;2022-11-20T10:31:37;100355.03;;;0.77;100.00
24825;BME280;12910;57.690;11.974;2022-11-20T10:34:37;100356.13;;;0.82;100.00
24825;BME280;12910;57.690;11.974;2022-11-20T10:37:16;100346.84;;;0.81;100.00
24825;BME280;12910;57.690;11.974;2022-11-20T10:42:18;100342.47;;;0.78;100.00
24825;BME280;12910;57.690;11.974;2022-11-20T10:44:58;100343.59;;;0.84;100.00
24825;BME280;12910;57.690;11.974;2022-11-20T10:47:28;100323.97;;;0.78;100.00
24825;BME280;12910;57.690;11.974;2022-11-20T10:50:00;100329.31;;;0.84;100.00
24825;BME280;12910;57.690;11.974;2022-11-20T11:01:05;100278.00;;;0.84;100.00
24825;BME280;12910;57.690;11.974;2022-11-20T11:03:31;100297.28;;;1.00;100.00
24825;BME280;12910;57.690;11.974;2022-11-20T11:08:59;100280.72;;;1.05;100.00
24825;BME280;12910;57.690;11.974;2022-11-20T11:11:29;100278.47;;;0.93;100.00
24825;BME280;12910;57.690;11.974;2022-11-20T11:14:12;100291.03;;;1.09;100.00
24825;BME280;12910;57.690;11.974;2022-11-20T11:16:56;100295.50;;;1.15;100.00
24825;BME280;12910;57.690;11.974;2022-11-20T11:19:22;100286.06;;;1.11;100.00
24825;BME280;12910;57.690;11.974;2022-11-20T11:21:50;100283.84;;;1.17;100.00
24825;BME280;12910;57.690;11.974;2022-11-20T11:24:29;100272.00;;;1.16;100.00
24825;BME280;12910;57.690;11.974;2022-11-20T11:27:03;100264.16;;;1.10;100.00
24825;BME280;12910;57.690;11.974;2022-11-20T11:29:30;100268.09;;;1.05;100.00
24825;BME280;12910;57.690;11.974;2022-11-20T11:32:14;100268.03;;;1.03;100.00
24825;BME280;12910;57.690;11.974;2022-11-20T11:34:40;100271.91;;;0.97;100.00
24825;BME280;12910;57.690;11.974;2022-11-20T11:37:17;100258.44;;;0.96;100.00
24825;BME280;12910;57.690;11.974;2022-11-20T11:39:44;100249.03;;;0.93;100.00
24825;BME280;12910;57.690;11.974;2022-11-20T11:42:16;100230.28;;;0.88;100.00
24825;BME280;12910;57.690;11.974;2022-11-20T11:44:47;100247.22;;;0.91;100.00
24825;BME280;12910;57.690;11.974;2022-11-20T11:56:25;100238.09;;;0.93;100.00
24825;BME280;12910;57.690;11.974;2022-11-20T11:58:46;100235.63;;;0.95;100.00
24825;BME280;12910;57.690;11.974;2022-11-20T12:01:29;100233.75;;;0.90;100.00
24825;BME280;12910;57.690;11.974;2022-11-20T12:04:04;100233.75;;;0.90;100.00
24825;BME280;12910;57.690;11.974;2022-11-20T12:06:34;100222.22;;;0.96;100.00
24825;BME280;12910;57.690;11.974;2022-11-20T12:09:08;100219.75;;;0.97;100.00
24825;BME280;12910;57.690;11.974;2022-11-20T12:11:43;100189.59;;;0.82;100.00
24825;BME280;12910;57.690;11.974;2022-11-20T12:14:11;100212.84;;;0.93;100.00
24825;BME280;12910;57.690;11.974;2022-11-20T12:16:39;100208.03;;;0.98;100.00
24825;BME280;12910;57.690;11.974;2022-11-20T12:19:12;100198.44;;;0.90;100.00
24825;BME280;12910;57.690;11.974;2022-11-20T12:24:58;100202.03;;;0.96;100.00
24825;BME280;12910;57.690;11.974;2022-11-20T12:30:13;100192.81;;;0.96;100.00
24825;BME280;12910;57.690;11.974;2022-11-20T12:47:45;100177.09;;;0.84;100.00
24825;BME280;12910;57.690;11.974;2022-11-20T12:50:48;100165.09;;;0.80;100.00
24825;BME280;12910;57.690;11.974;2022-11-20T13:01:26;100152.72;;;0.84;100.00
24825;BME280;12910;57.690;11.974;2022-11-20T13:04:34;100146.88;;;0.85;100.00
24825;BME280;12910;57.690;11.974;2022-11-20T13:07:13;100148.69;;;0.88;100.00
24825;BME280;12910;57.690;11.974;2022-11-20T13:09:49;100150.34;;;0.87;100.00
24825;BME280;12910;57.690;11.974;2022-11-20T13:12:27;100148.47;;;0.83;100.00
24825;BME280;12910;57.690;11.974;2022-11-20T13:18:07;100139.16;;;0.82;100.00
24825;BME280;12910;57.690;11.974;2022-11-20T13:20:34;100142.22;;;0.93;100.00
24825;BME280;12910;57.690;11.974;2022-11-20T13:23:01;100130.00;;;0.84;100.00
24825;BME280;12910;57.690;11.974;2022-11-20T13:25:37;100143.00;;;0.92;100.00
24825;BME280;12910;57.690;11.974;2022-11-20T13:28:24;100144.63;;;0.91;100.00
24825;BME280;12910;57.690;11.974;2022-11-20T13:30:51;100143.06;;;0.93;100.00
24825;BME280;12910;57.690;11.974;2022-11-20T13:36:06;100130.53;;;0.95;100.00
24825;BME280;12910;57.690;11.974;2022-11-20T13:38:44;100134.44;;;0.88;100.00
24825;BME280;12910;57.690;11.974;2022-11-20T13:41:22;100123.09;;;0.80;100.00
24825;BME280;12910;57.690;11.974;2022-11-20T13:43:58;100129.28;;;0.87;100.00
24825;BME280;12910;57.690;11.974;2022-11-20T13:46:44;100123.44;;;0.88;100.00
24825;BME280;12910;57.690;11.974;2022-11-20T13:49:27;100127.91;;;0.93;100.00
24825;BME280;12910;57.690;11.974;2022-11-20T13:52:39;100126.69;;;0.85;100.00
24825;BME280;12910;57.690;11.974;2022-11-20T13:55:32;100126.53;;;0.82;100.00
24825;BME280;12910;57.690;11.974;2022-11-20T14:01:00;100114.16;;;0.87;100.00
24825;BME280;12910;57.690;11.974;2022-11-20T14:03:29;100120.34;;;0.93;100.00
24825;BME280;12910;57.690;11.974;2022-11-20T14:06:04;100115.81;;;0.86;100.00
24825;BME280;12910;57.690;11.974;2022-11-20T14:13:36;100111.56;;;0.85;100.00
24825;BME280;12910;57.690;11.974;2022-11-20T14:16:02;100121.88;;;0.90;100.00